sensor_id;sensor_type;location;lat;lon;timestamp;P1;durP1;ratioP1;P2;durP2;ratioP2
7887;SDS011;3989;48.810;9.208;2022-10-17T00:02:07;7.33;;;6.03;;
7887;SDS011;3989;48.810;9.208;2022-10-17T00:04:33;9.67;;;5.60;;
7887;SDS011;3989;48.810;9.208;2022-10-17T00:07:00;6.70;;;6.03;;
7887;SDS011;3989;48.810;9.208;2022-10-17T00:09:26;7.40;;;5.57;;
7887;SDS011;3989;48.810;9.208;2022-10-17T00:11:53;8.07;;;5.83;;
7887;SDS011;3989;48.810;9.208;2022-10-17T00:14:19;6.67;;;5.70;;
7887;SDS011;3989;48.810;9.208;2022-10-17T00:16:47;6.40;;;5.80;;
7887;SDS011;3989;48.810;9.208;2022-10-17T00:19:14;6.93;;;6.23;;
7887;SDS011;3989;48.810;9.208;2022-10-17T00:21:40;6.20;;;4.90;;
7887;SDS011;3989;48.810;9.208;2022-10-17T00:24:07;7.17;;;5.63;;
7887;SDS011;3989;48.810;9.208;2022-10-17T00:26:33;9.53;;;6.47;;
7887;SDS011;3989;48.810;9.208;2022-10-17T00:29:00;8.13;;;5.77;;
7887;SDS011;3989;48.810;9.208;2022-10-17T00:31:26;6.57;;;5.97;;
7887;SDS011;3989;48.810;9.208;2022-10-17T00:33:54;6.97;;;5.83;;
7887;SDS011;3989;48.810;9.208;2022-10-17T00:36:21;9.03;;;5.80;;
7887;SDS011;3989;48.810;9.208;2022-10-17T00:38:50;6.00;;;5.20;;
7887;SDS011;3989;48.810;9.208;2022-10-17T00:41:18;8.37;;;5.80;;
7887;SDS011;3989;48.810;9.208;2022-10-17T00:43:56;8.33;;;6.10;;
7887;SDS011;3989;48.810;9.208;2022-10-17T00:46:26;8.17;;;6.10;;
7887;SDS011;3989;48.810;9.208;2022-10-17T00:48:56;12.27;;;6.30;;
7887;SDS011;3989;48.810;9.208;2022-10-17T00:51:27;9.30;;;6.53;;
7887;SDS011;3989;48.810;9.208;2022-10-17T00:53:58;9.47;;;6.03;;
7887;SDS011;3989;48.810;9.208;2022-10-17T00:56:26;10.50;;;6.00;;
7887;SDS011;3989;48.810;9.208;2022-10-17T00:58:52;12.63;;;5.70;;
7887;SDS011;3989;48.810;9.208;2022-10-17T01:01:20;6.37;;;5.73;;
7887;SDS011;3989;48.810;9.208;2022-10-17T01:03:47;10.80;;;6.10;;
7887;SDS011;3989;48.810;9.208;2022-10-17T01:06:15;7.80;;;5.83;;
7887;SDS011;3989;48.810;9.208;2022-10-17T01:08:41;8.17;;;6.23;;
7887;SDS011;3989;48.810;9.208;2022-10-17T01:11:11;8.37;;;5.83;;
7887;SDS011;3989;48.810;9.208;2022-10-17T01:13:47;6.27;;;5.73;;
7887;SDS011;3989;48.810;9.208;2022-10-17T01:16:17;7.90;;;6.97;;
7887;SDS011;3989;48.810;9.208;2022-10-17T01:18:55;14.60;;;5.97;;
7887;SDS011;3989;48.810;9.208;2022-10-17T01:21:38;9.70;;;5.63;;
7887;SDS011;3989;48.810;9.208;2022-10-17T01:24:31;8.57;;;5.30;;
7887;SDS011;3989;48.810;9.208;2022-10-17T01:27:35;5.73;;;5.23;;
7887;SDS011;3989;48.810;9.208;2022-10-17T01:30:17;7.53;;;5.00;;
7887;SDS011;3989;48.810;9.208;2022-10-17T01:32:56;6.60;;;5.47;;
7887;SDS011;3989;48.810;9.208;2022-10-17T01:35:29;6.57;;;6.00;;
7887;SDS011;3989;48.810;9.208;2022-10-17T01:38:04;6.13;;;5.17;;
7887;SDS011;3989;48.810;9.208;2022-10-17T01:40:36;5.87;;;5.13;;
7887;SDS011;3989;48.810;9.208;2022-10-17T01:43:10;5.70;;;5.10;;
7887;SDS011;3989;48.810;9.208;2022-10-17T01:45:43;7.63;;;5.27;;
7887;SDS011;3989;48.810;9.208;2022-10-17T01:48:15;5.97;;;5.23;;
7887;SDS011;3989;48.810;9.208;2022-10-17T01:50:45;8.67;;;5.07;;
7887;SDS011;3989;48.810;9.208;2022-10-17T01:53:18;6.10;;;4.93;;
7887;SDS011;3989;48.810;9.208;2022-10-17T01:55:47;7.90;;;4.93;;
7887;SDS011;3989;48.810;9.208;2022-10-17T01:58:19;5.33;;;4.37;;
7887;SDS011;3989;48.810;9.208;2022-10-17T02:00:49;9.90;;;4.90;;
7887;SDS011;3989;48.810;9.208;2022-10-17T02:03:20;5.63;;;5.03;;
7887;SDS011;3989;48.810;9.208;2022-10-17T02:05:47;5.37;;;4.87;;
7887;SDS011;3989;48.810;9.208;2022-10-17T02:08:20;8.33;;;4.80;;
7887;SDS011;3989;48.810;9.208;2022-10-17T02:10:54;5.67;;;4.47;;
7887;SDS011;3989;48.810;9.208;2022-10-17T02:13:26;9.43;;;4.70;;
7887;SDS011;3989;48.810;9.208;2022-10-17T02:16:11;5.40;;;4.43;;
7887;SDS011;3989;48.810;9.208;2022-10-17T02:18:50;5.10;;;4.60;;
7887;SDS011;3989;48.810;9.208;2022-10-17T02:21:30;7.87;;;4.83;;
7887;SDS011;3989;48.810;9.208;2022-10-17T02:24:10;4.87;;;4.43;;
7887;SDS011;3989;48.810;9.208;2022-10-17T02:26:46;4.93;;;4.43;;
7887;SDS011;3989;48.810;9.208;2022-10-17T02:29:19;4.47;;;4.10;;
7887;SDS011;3989;48.810;9.208;2022-10-17T02:31:48;4.87;;;4.27;;
7887;SDS011;3989;48.810;9.208;2022-10-17T02:34:22;8.20;;;4.40;;
7887;SDS011;3989;48.810;9.208;2022-10-17T02:36:53;4.10;;;3.80;;
7887;SDS011;3989;48.810;9.208;2022-10-17T02:39:24;6.03;;;4.60;;
7887;SDS011;3989;48.810;9.208;2022-10-17T02:41:55;7.10;;;4.17;;
7887;SDS011;3989;48.810;9.208;2022-10-17T02:44:27;5.97;;;4.30;;
7887;SDS011;3989;48.810;9.208;2022-10-17T02:47:10;4.23;;;3.93;;
7887;SDS011;3989;48.810;9.208;2022-10-17T02:49:44;6.13;;;4.23;;
7887;SDS011;3989;48.810;9.208;2022-10-17T02:52:16;5.30;;;3.83;;
7887;SDS011;3989;48.810;9.208;2022-10-17T02:54:47;7.43;;;4.47;;
7887;SDS011;3989;48.810;9.208;2022-10-17T02:57:21;6.13;;;4.20;;
7887;SDS011;3989;48.810;9.208;2022-10-17T02:59:52;5.77;;;3.90;;
7887;SDS011;3989;48.810;9.208;2022-10-17T03:02:20;4.60;;;4.20;;
7887;SDS011;3989;48.810;9.208;2022-10-17T03:04:48;4.40;;;4.00;;
7887;SDS011;3989;48.810;9.208;2022-10-17T03:07:15;4.60;;;4.20;;
7887;SDS011;3989;48.810;9.208;2022-10-17T03:09:42;5.57;;;4.77;;
7887;SDS011;3989;48.810;9.208;2022-10-17T03:12:08;4.90;;;4.13;;
7887;SDS011;3989;48.810;9.208;2022-10-17T03:14:35;4.63;;;4.10;;
7887;SDS011;3989;48.810;9.208;2022-10-17T03:17:01;4.27;;;3.97;;
7887;SDS011;3989;48.810;9.208;2022-10-17T03:19:28;5.17;;;4.67;;
7887;SDS011;3989;48.810;9.208;2022-10-17T03:21:56;5.70;;;4.80;;
7887;SDS011;3989;48.810;9.208;2022-10-17T03:24:22;4.40;;;4.07;;
7887;SDS011;3989;48.810;9.208;2022-10-17T03:26:49;5.17;;;4.23;;
7887;SDS011;3989;48.810;9.208;2022-10-17T03:29:16;4.70;;;4.33;;
7887;SDS011;3989;48.810;9.208;2022-10-17T03:31:42;5.10;;;4.60;;
7887;SDS011;3989;48.810;9.208;2022-10-17T03:34:09;5.37;;;4.37;;
7887;SDS011;3989;48.810;9.208;2022-10-17T03:36:36;6.47;;;4.80;;
7887;SDS011;3989;48.810;9.208;2022-10-17T03:39:04;7.17;;;6.27;;
7887;SDS011;3989;48.810;9.208;2022-10-17T03:41:30;5.80;;;5.07;;
7887;SDS011;3989;48.810;9.208;2022-10-17T03:43:57;9.33;;;5.03;;
7887;SDS011;3989;48.810;9.208;2022-10-17T03:46:25;8.63;;;5.13;;
7887;SDS011;3989;48.810;9.208;2022-10-17T03:48:52;6.33;;;4.97;;
7887;SDS011;3989;48.810;9.208;2022-10-17T03:51:19;8.67;;;4.77;;
7887;SDS011;3989;48.810;9.208;2022-10-17T03:53:45;5.40;;;4.73;;
7887;SDS011;3989;48.810;9.208;2022-10-17T03:56:14;10.03;;;5.70;;
7887;SDS011;3989;48.810;9.208;2022-10-17T03:58:42;9.67;;;5.70;;
7887;SDS011;3989;48.810;9.208;2022-10-17T04:01:09;6.77;;;5.13;;
7887;SDS011;3989;48.810;9.208;2022-10-17T04:03:37;6.17;;;5.10;;
7887;SDS011;3989;48.810;9.208;2022-10-17T04:06:05;7.03;;;5.80;;
7887;SDS011;3989;48.810;9.208;2022-10-17T04:08:33;10.70;;;6.00;;
7887;SDS011;3989;48.810;9.208;2022-10-17T04:11:01;10.73;;;5.97;;
7887;SDS011;3989;48.810;9.208;2022-10-17T04:13:30;7.80;;;6.17;;
7887;SDS011;3989;48.810;9.208;2022-10-17T04:15:58;9.07;;;6.37;;
7887;SDS011;3989;48.810;9.208;2022-10-17T04:18:26;14.57;;;6.50;;
7887;SDS011;3989;48.810;9.208;2022-10-17T04:20:56;10.40;;;8.93;;
7887;SDS011;3989;48.810;9.208;2022-10-17T04:23:23;8.00;;;7.03;;
7887;SDS011;3989;48.810;9.208;2022-10-17T04:25:52;9.87;;;6.80;;
7887;SDS011;3989;48.810;9.208;2022-10-17T04:28:21;9.63;;;6.70;;
7887;SDS011;3989;48.810;9.208;2022-10-17T04:30:55;8.70;;;6.90;;
7887;SDS011;3989;48.810;9.208;2022-10-17T04:33:23;10.00;;;7.23;;
7887;SDS011;3989;48.810;9.208;2022-10-17T04:35:56;10.00;;;6.93;;
7887;SDS011;3989;48.810;9.208;2022-10-17T04:38:23;9.10;;;7.07;;
7887;SDS011;3989;48.810;9.208;2022-10-17T04:40:50;11.87;;;7.57;;
7887;SDS011;3989;48.810;9.208;2022-10-17T04:43:17;10.20;;;7.10;;
7887;SDS011;3989;48.810;9.208;2022-10-17T04:45:44;9.63;;;7.20;;
7887;SDS011;3989;48.810;9.208;2022-10-17T04:48:15;11.47;;;7.70;;
7887;SDS011;3989;48.810;9.208;2022-10-17T04:50:57;8.73;;;7.03;;
7887;SDS011;3989;48.810;9.208;2022-10-17T04:53:29;9.37;;;7.23;;
7887;SDS011;3989;48.810;9.208;2022-10-17T04:55:57;7.10;;;6.37;;
7887;SDS011;3989;48.810;9.208;2022-10-17T04:58:24;11.60;;;6.60;;
7887;SDS011;3989;48.810;9.208;2022-10-17T05:00:53;7.77;;;6.93;;
7887;SDS011;3989;48.810;9.208;2022-10-17T05:03:21;11.50;;;6.57;;
7887;SDS011;3989;48.810;9.208;2022-10-17T05:05:48;7.60;;;6.77;;
7887;SDS011;3989;48.810;9.208;2022-10-17T05:08:18;11.23;;;7.07;;
7887;SDS011;3989;48.810;9.208;2022-10-17T05:10:48;9.23;;;6.90;;
7887;SDS011;3989;48.810;9.208;2022-10-17T05:13:18;8.00;;;6.73;;
7887;SDS011;3989;48.810;9.208;2022-10-17T05:15:44;10.87;;;6.50;;
7887;SDS011;3989;48.810;9.208;2022-10-17T05:18:11;6.63;;;6.03;;
7887;SDS011;3989;48.810;9.208;2022-10-17T05:20:39;11.43;;;6.30;;
7887;SDS011;3989;48.810;9.208;2022-10-17T05:23:05;6.47;;;5.87;;
7887;SDS011;3989;48.810;9.208;2022-10-17T05:25:32;8.37;;;6.27;;
7887;SDS011;3989;48.810;9.208;2022-10-17T05:28:04;8.80;;;6.60;;
7887;SDS011;3989;48.810;9.208;2022-10-17T05:30:30;6.43;;;5.83;;
7887;SDS011;3989;48.810;9.208;2022-10-17T05:32:57;7.53;;;6.10;;
7887;SDS011;3989;48.810;9.208;2022-10-17T05:35:26;7.00;;;6.30;;
7887;SDS011;3989;48.810;9.208;2022-10-17T05:37:55;6.63;;;5.90;;
7887;SDS011;3989;48.810;9.208;2022-10-17T05:40:23;7.90;;;6.30;;
7887;SDS011;3989;48.810;9.208;2022-10-17T05:42:49;7.23;;;5.70;;
7887;SDS011;3989;48.810;9.208;2022-10-17T05:45:16;11.37;;;6.30;;
7887;SDS011;3989;48.810;9.208;2022-10-17T05:47:43;7.90;;;7.00;;
7887;SDS011;3989;48.810;9.208;2022-10-17T05:50:09;6.83;;;5.97;;
7887;SDS011;3989;48.810;9.208;2022-10-17T05:52:36;10.10;;;6.00;;
7887;SDS011;3989;48.810;9.208;2022-10-17T05:55:07;9.43;;;5.87;;
7887;SDS011;3989;48.810;9.208;2022-10-17T05:57:34;7.67;;;5.27;;
7887;SDS011;3989;48.810;9.208;2022-10-17T06:00:01;6.47;;;5.83;;
7887;SDS011;3989;48.810;9.208;2022-10-17T06:02:27;6.03;;;5.43;;
7887;SDS011;3989;48.810;9.208;2022-10-17T06:04:54;8.20;;;5.70;;
7887;SDS011;3989;48.810;9.208;2022-10-17T06:07:21;7.67;;;5.63;;
7887;SDS011;3989;48.810;9.208;2022-10-17T06:09:47;9.60;;;5.40;;
7887;SDS011;3989;48.810;9.208;2022-10-17T06:12:15;9.03;;;6.03;;
7887;SDS011;3989;48.810;9.208;2022-10-17T06:14:42;9.47;;;6.17;;
7887;SDS011;3989;48.810;9.208;2022-10-17T06:17:09;6.30;;;5.70;;
7887;SDS011;3989;48.810;9.208;2022-10-17T06:19:38;8.70;;;5.23;;
7887;SDS011;3989;48.810;9.208;2022-10-17T06:22:05;7.30;;;5.60;;
7887;SDS011;3989;48.810;9.208;2022-10-17T06:24:32;7.80;;;5.20;;
7887;SDS011;3989;48.810;9.208;2022-10-17T06:26:58;6.80;;;5.23;;
7887;SDS011;3989;48.810;9.208;2022-10-17T06:29:26;6.90;;;5.40;;
7887;SDS011;3989;48.810;9.208;2022-10-17T06:31:53;5.80;;;5.20;;
7887;SDS011;3989;48.810;9.208;2022-10-17T06:34:19;5.90;;;4.93;;
7887;SDS011;3989;48.810;9.208;2022-10-17T06:36:46;6.17;;;5.33;;
7887;SDS011;3989;48.810;9.208;2022-10-17T06:39:13;7.10;;;5.90;;
7887;SDS011;3989;48.810;9.208;2022-10-17T06:41:40;9.10;;;6.30;;
7887;SDS011;3989;48.810;9.208;2022-10-17T06:44:08;7.33;;;5.40;;
7887;SDS011;3989;48.810;9.208;2022-10-17T06:46:37;8.23;;;5.43;;
7887;SDS011;3989;48.810;9.208;2022-10-17T06:49:05;6.47;;;4.70;;
7887;SDS011;3989;48.810;9.208;2022-10-17T06:51:33;4.70;;;4.30;;
7887;SDS011;3989;48.810;9.208;2022-10-17T06:54:01;5.40;;;3.87;;
7887;SDS011;3989;48.810;9.208;2022-10-17T06:56:29;6.50;;;4.53;;
7887;SDS011;3989;48.810;9.208;2022-10-17T06:58:55;9.70;;;4.47;;
7887;SDS011;3989;48.810;9.208;2022-10-17T07:01:22;5.33;;;3.80;;
7887;SDS011;3989;48.810;9.208;2022-10-17T07:03:50;7.40;;;3.63;;
7887;SDS011;3989;48.810;9.208;2022-10-17T07:06:17;4.93;;;3.60;;
7887;SDS011;3989;48.810;9.208;2022-10-17T07:08:44;7.97;;;4.10;;
7887;SDS011;3989;48.810;9.208;2022-10-17T07:11:11;5.73;;;3.37;;
7887;SDS011;3989;48.810;9.208;2022-10-17T07:13:39;4.23;;;3.70;;
7887;SDS011;3989;48.810;9.208;2022-10-17T07:16:06;3.83;;;2.77;;
7887;SDS011;3989;48.810;9.208;2022-10-17T07:18:33;4.53;;;3.43;;
7887;SDS011;3989;48.810;9.208;2022-10-17T07:21:01;3.47;;;3.03;;
7887;SDS011;3989;48.810;9.208;2022-10-17T07:23:29;6.60;;;3.30;;
7887;SDS011;3989;48.810;9.208;2022-10-17T07:25:58;7.57;;;3.40;;
7887;SDS011;3989;48.810;9.208;2022-10-17T07:28:25;7.33;;;3.27;;
7887;SDS011;3989;48.810;9.208;2022-10-17T07:30:55;7.20;;;3.80;;
7887;SDS011;3989;48.810;9.208;2022-10-17T07:33:22;4.13;;;3.80;;
7887;SDS011;3989;48.810;9.208;2022-10-17T07:35:48;4.80;;;3.30;;
7887;SDS011;3989;48.810;9.208;2022-10-17T07:38:18;4.67;;;3.63;;
7887;SDS011;3989;48.810;9.208;2022-10-17T07:40:45;4.03;;;3.70;;
7887;SDS011;3989;48.810;9.208;2022-10-17T07:43:11;5.87;;;3.57;;
7887;SDS011;3989;48.810;9.208;2022-10-17T07:45:39;6.90;;;3.70;;
7887;SDS011;3989;48.810;9.208;2022-10-17T07:48:06;11.30;;;4.57;;
7887;SDS011;3989;48.810;9.208;2022-10-17T07:50:33;6.33;;;4.47;;
7887;SDS011;3989;48.810;9.208;2022-10-17T07:52:59;6.80;;;4.00;;
7887;SDS011;3989;48.810;9.208;2022-10-17T07:55:27;5.00;;;3.80;;
7887;SDS011;3989;48.810;9.208;2022-10-17T07:57:55;4.23;;;3.83;;
7887;SDS011;3989;48.810;9.208;2022-10-17T08:00:24;3.57;;;3.27;;
7887;SDS011;3989;48.810;9.208;2022-10-17T08:02:51;6.40;;;3.70;;
7887;SDS011;3989;48.810;9.208;2022-10-17T08:05:17;5.90;;;3.73;;
7887;SDS011;3989;48.810;9.208;2022-10-17T08:07:44;4.90;;;3.90;;
7887;SDS011;3989;48.810;9.208;2022-10-17T08:10:11;7.07;;;4.13;;
7887;SDS011;3989;48.810;9.208;2022-10-17T08:12:40;7.53;;;4.60;;
7887;SDS011;3989;48.810;9.208;2022-10-17T08:15:07;5.60;;;3.67;;
7887;SDS011;3989;48.810;9.208;2022-10-17T08:17:36;5.43;;;4.10;;
7887;SDS011;3989;48.810;9.208;2022-10-17T08:20:04;7.40;;;3.80;;
7887;SDS011;3989;48.810;9.208;2022-10-17T08:22:32;3.73;;;3.43;;
7887;SDS011;3989;48.810;9.208;2022-10-17T08:24:58;11.27;;;4.23;;
7887;SDS011;3989;48.810;9.208;2022-10-17T08:27:25;8.27;;;4.17;;
7887;SDS011;3989;48.810;9.208;2022-10-17T08:29:54;3.90;;;3.47;;
7887;SDS011;3989;48.810;9.208;2022-10-17T08:32:21;6.67;;;3.00;;
7887;SDS011;3989;48.810;9.208;2022-10-17T08:34:50;3.93;;;3.57;;
7887;SDS011;3989;48.810;9.208;2022-10-17T08:37:17;5.53;;;3.20;;
7887;SDS011;3989;48.810;9.208;2022-10-17T08:39:44;4.43;;;2.80;;
7887;SDS011;3989;48.810;9.208;2022-10-17T08:42:21;4.93;;;2.97;;
7887;SDS011;3989;48.810;9.208;2022-10-17T08:45:07;4.57;;;3.63;;
7887;SDS011;3989;48.810;9.208;2022-10-17T08:47:43;7.23;;;3.60;;
7887;SDS011;3989;48.810;9.208;2022-10-17T08:50:11;6.50;;;4.03;;
7887;SDS011;3989;48.810;9.208;2022-10-17T08:52:42;5.87;;;2.93;;
7887;SDS011;3989;48.810;9.208;2022-10-17T08:55:13;4.90;;;3.20;;
7887;SDS011;3989;48.810;9.208;2022-10-17T08:57:41;7.13;;;2.63;;
7887;SDS011;3989;48.810;9.208;2022-10-17T09:00:13;4.43;;;3.70;;
7887;SDS011;3989;48.810;9.208;2022-10-17T09:02:45;3.73;;;3.10;;
7887;SDS011;3989;48.810;9.208;2022-10-17T09:05:31;3.20;;;2.75;;
7887;SDS011;3989;48.810;9.208;2022-10-17T09:08:05;7.43;;;2.90;;
7887;SDS011;3989;48.810;9.208;2022-10-17T09:10:45;5.67;;;3.23;;
7887;SDS011;3989;48.810;9.208;2022-10-17T09:13:23;8.32;;;2.90;;
7887;SDS011;3989;48.810;9.208;2022-10-17T09:15:59;3.10;;;2.83;;
7887;SDS011;3989;48.810;9.208;2022-10-17T09:18:37;4.13;;;3.25;;
7887;SDS011;3989;48.810;9.208;2022-10-17T09:21:11;3.70;;;2.85;;
7887;SDS011;3989;48.810;9.208;2022-10-17T09:23:45;6.95;;;3.42;;
7887;SDS011;3989;48.810;9.208;2022-10-17T09:26:14;6.95;;;3.65;;
7887;SDS011;3989;48.810;9.208;2022-10-17T09:28:41;3.35;;;3.05;;
7887;SDS011;3989;48.810;9.208;2022-10-17T09:31:13;4.13;;;3.30;;
7887;SDS011;3989;48.810;9.208;2022-10-17T09:33:46;5.03;;;3.47;;
7887;SDS011;3989;48.810;9.208;2022-10-17T09:36:15;5.78;;;3.88;;
7887;SDS011;3989;48.810;9.208;2022-10-17T09:38:44;6.75;;;3.30;;
7887;SDS011;3989;48.810;9.208;2022-10-17T09:41:17;7.80;;;3.85;;
7887;SDS011;3989;48.810;9.208;2022-10-17T09:43:46;11.43;;;3.25;;
7887;SDS011;3989;48.810;9.208;2022-10-17T09:46:16;4.43;;;2.78;;
7887;SDS011;3989;48.810;9.208;2022-10-17T09:48:49;5.82;;;3.13;;
7887;SDS011;3989;48.810;9.208;2022-10-17T09:51:19;3.10;;;2.90;;
7887;SDS011;3989;48.810;9.208;2022-10-17T09:53:47;7.00;;;2.95;;
7887;SDS011;3989;48.810;9.208;2022-10-17T09:56:17;3.53;;;3.22;;
7887;SDS011;3989;48.810;9.208;2022-10-17T09:58:45;4.38;;;3.10;;
7887;SDS011;3989;48.810;9.208;2022-10-17T10:01:16;5.03;;;2.67;;
7887;SDS011;3989;48.810;9.208;2022-10-17T10:03:45;13.40;;;2.88;;
7887;SDS011;3989;48.810;9.208;2022-10-17T10:06:13;3.60;;;2.85;;
7887;SDS011;3989;48.810;9.208;2022-10-17T10:08:48;4.25;;;2.60;;
7887;SDS011;3989;48.810;9.208;2022-10-17T10:11:17;4.65;;;2.53;;
7887;SDS011;3989;48.810;9.208;2022-10-17T10:13:45;3.58;;;3.28;;
7887;SDS011;3989;48.810;9.208;2022-10-17T10:16:16;3.33;;;2.78;;
7887;SDS011;3989;48.810;9.208;2022-10-17T10:18:45;4.78;;;3.33;;
7887;SDS011;3989;48.810;9.208;2022-10-17T10:21:13;4.00;;;3.60;;
7887;SDS011;3989;48.810;9.208;2022-10-17T10:23:41;6.88;;;3.30;;
7887;SDS011;3989;48.810;9.208;2022-10-17T10:26:19;3.95;;;3.30;;
7887;SDS011;3989;48.810;9.208;2022-10-17T10:28:50;5.72;;;3.45;;
7887;SDS011;3989;48.810;9.208;2022-10-17T10:31:25;3.53;;;3.22;;
7887;SDS011;3989;48.810;9.208;2022-10-17T10:33:54;5.10;;;3.17;;
7887;SDS011;3989;48.810;9.208;2022-10-17T10:36:21;3.90;;;3.22;;
7887;SDS011;3989;48.810;9.208;2022-10-17T10:38:50;2.75;;;2.55;;
7887;SDS011;3989;48.810;9.208;2022-10-17T10:41:20;4.20;;;2.38;;
7887;SDS011;3989;48.810;9.208;2022-10-17T10:43:47;7.20;;;2.80;;
7887;SDS011;3989;48.810;9.208;2022-10-17T10:46:17;4.20;;;2.80;;
7887;SDS011;3989;48.810;9.208;2022-10-17T10:48:53;2.90;;;2.55;;
7887;SDS011;3989;48.810;9.208;2022-10-17T10:51:23;4.53;;;2.80;;
7887;SDS011;3989;48.810;9.208;2022-10-17T10:53:56;3.65;;;3.05;;
7887;SDS011;3989;48.810;9.208;2022-10-17T10:56:28;4.05;;;3.70;;
7887;SDS011;3989;48.810;9.208;2022-10-17T10:59:00;5.07;;;4.32;;
7887;SDS011;3989;48.810;9.208;2022-10-17T11:01:33;4.43;;;3.50;;
7887;SDS011;3989;48.810;9.208;2022-10-17T11:04:18;4.28;;;3.55;;
7887;SDS011;3989;48.810;9.208;2022-10-17T11:06:51;3.22;;;2.92;;
7887;SDS011;3989;48.810;9.208;2022-10-17T11:09:25;4.10;;;3.05;;
7887;SDS011;3989;48.810;9.208;2022-10-17T11:11:59;4.45;;;2.95;;
7887;SDS011;3989;48.810;9.208;2022-10-17T11:14:36;4.75;;;3.65;;
7887;SDS011;3989;48.810;9.208;2022-10-17T11:17:09;4.88;;;3.75;;
7887;SDS011;3989;48.810;9.208;2022-10-17T11:19:45;6.15;;;3.10;;
7887;SDS011;3989;48.810;9.208;2022-10-17T11:22:23;3.08;;;2.38;;
7887;SDS011;3989;48.810;9.208;2022-10-17T11:24:56;3.60;;;2.50;;
7887;SDS011;3989;48.810;9.208;2022-10-17T11:27:25;2.80;;;2.03;;
7887;SDS011;3989;48.810;9.208;2022-10-17T11:29:54;3.50;;;2.55;;
7887;SDS011;3989;48.810;9.208;2022-10-17T11:32:22;2.53;;;2.20;;
7887;SDS011;3989;48.810;9.208;2022-10-17T11:34:54;2.90;;;2.20;;
7887;SDS011;3989;48.810;9.208;2022-10-17T11:37:27;5.45;;;2.05;;
7887;SDS011;3989;48.810;9.208;2022-10-17T11:39:59;2.33;;;2.13;;
7887;SDS011;3989;48.810;9.208;2022-10-17T11:42:30;3.72;;;2.30;;
7887;SDS011;3989;48.810;9.208;2022-10-17T11:45:03;2.63;;;1.80;;
7887;SDS011;3989;48.810;9.208;2022-10-17T11:47:42;2.40;;;2.20;;
7887;SDS011;3989;48.810;9.208;2022-10-17T11:50:18;3.33;;;2.13;;
7887;SDS011;3989;48.810;9.208;2022-10-17T11:52:51;3.47;;;2.50;;
7887;SDS011;3989;48.810;9.208;2022-10-17T11:55:22;2.60;;;2.28;;
7887;SDS011;3989;48.810;9.208;2022-10-17T11:57:56;6.07;;;2.60;;
7887;SDS011;3989;48.810;9.208;2022-10-17T12:00:35;3.80;;;2.50;;
7887;SDS011;3989;48.810;9.208;2022-10-17T12:03:16;4.32;;;1.83;;
7887;SDS011;3989;48.810;9.208;2022-10-17T12:05:51;1.38;;;1.23;;
7887;SDS011;3989;48.810;9.208;2022-10-17T12:08:28;2.17;;;1.50;;
7887;SDS011;3989;48.810;9.208;2022-10-17T12:11:02;4.38;;;1.20;;
7887;SDS011;3989;48.810;9.208;2022-10-17T12:13:48;7.47;;;1.50;;
7887;SDS011;3989;48.810;9.208;2022-10-17T12:16:36;1.20;;;1.10;;
7887;SDS011;3989;48.810;9.208;2022-10-17T12:19:14;5.22;;;1.80;;
7887;SDS011;3989;48.810;9.208;2022-10-17T12:21:54;1.23;;;1.20;;
7887;SDS011;3989;48.810;9.208;2022-10-17T12:24:30;3.08;;;1.05;;
7887;SDS011;3989;48.810;9.208;2022-10-17T12:27:21;1.58;;;1.27;;
7887;SDS011;3989;48.810;9.208;2022-10-17T12:29:58;1.70;;;1.52;;
7887;SDS011;3989;48.810;9.208;2022-10-17T12:32:26;1.65;;;1.20;;
7887;SDS011;3989;48.810;9.208;2022-10-17T12:35:03;1.10;;;1.10;;
7887;SDS011;3989;48.810;9.208;2022-10-17T12:43:32;1.10;;;1.00;;
7887;SDS011;3989;48.810;9.208;2022-10-17T12:46:40;1.17;;;1.13;;
7887;SDS011;3989;48.810;9.208;2022-10-17T12:52:21;1.58;;;1.40;;
7887;SDS011;3989;48.810;9.208;2022-10-17T12:54:56;1.50;;;1.35;;
7887;SDS011;3989;48.810;9.208;2022-10-17T12:57:32;1.63;;;1.23;;
7887;SDS011;3989;48.810;9.208;2022-10-17T13:00:05;0.82;;;0.82;;
7887;SDS011;3989;48.810;9.208;2022-10-17T13:02:41;2.72;;;1.10;;
7887;SDS011;3989;48.810;9.208;2022-10-17T13:05:10;1.70;;;1.45;;
7887;SDS011;3989;48.810;9.208;2022-10-17T13:07:48;2.92;;;1.00;;
7887;SDS011;3989;48.810;9.208;2022-10-17T13:13:35;4.30;;;1.40;;
7887;SDS011;3989;48.810;9.208;2022-10-17T13:16:07;4.18;;;1.55;;
7887;SDS011;3989;48.810;9.208;2022-10-17T13:18:34;2.47;;;1.85;;
7887;SDS011;3989;48.810;9.208;2022-10-17T13:21:03;2.00;;;1.60;;
7887;SDS011;3989;48.810;9.208;2022-10-17T13:23:32;2.60;;;1.55;;
7887;SDS011;3989;48.810;9.208;2022-10-17T13:26:03;2.03;;;1.73;;
7887;SDS011;3989;48.810;9.208;2022-10-17T13:28:32;1.83;;;1.73;;
7887;SDS011;3989;48.810;9.208;2022-10-17T13:31:00;1.65;;;1.55;;
7887;SDS011;3989;48.810;9.208;2022-10-17T13:33:29;3.60;;;1.60;;
7887;SDS011;3989;48.810;9.208;2022-10-17T13:35:59;1.77;;;1.55;;
7887;SDS011;3989;48.810;9.208;2022-10-17T13:38:29;2.33;;;1.63;;
7887;SDS011;3989;48.810;9.208;2022-10-17T13:40:57;1.85;;;1.75;;
7887;SDS011;3989;48.810;9.208;2022-10-17T13:43:25;2.47;;;2.38;;
7887;SDS011;3989;48.810;9.208;2022-10-17T13:48:53;1.63;;;1.52;;
7887;SDS011;3989;48.810;9.208;2022-10-17T13:51:20;1.48;;;1.30;;
7887;SDS011;3989;48.810;9.208;2022-10-17T13:53:50;1.73;;;1.63;;
7887;SDS011;3989;48.810;9.208;2022-10-17T13:56:18;1.98;;;1.55;;
7887;SDS011;3989;48.810;9.208;2022-10-17T13:58:47;1.38;;;1.27;;
7887;SDS011;3989;48.810;9.208;2022-10-17T14:01:17;4.03;;;1.40;;
7887;SDS011;3989;48.810;9.208;2022-10-17T14:03:45;2.22;;;1.67;;
7887;SDS011;3989;48.810;9.208;2022-10-17T14:06:15;1.40;;;1.30;;
7887;SDS011;3989;48.810;9.208;2022-10-17T14:08:48;2.95;;;1.40;;
7887;SDS011;3989;48.810;9.208;2022-10-17T14:11:21;2.67;;;1.65;;
7887;SDS011;3989;48.810;9.208;2022-10-17T14:13:52;1.92;;;1.60;;
7887;SDS011;3989;48.810;9.208;2022-10-17T14:16:21;1.75;;;1.67;;
7887;SDS011;3989;48.810;9.208;2022-10-17T14:18:50;2.45;;;1.48;;
7887;SDS011;3989;48.810;9.208;2022-10-17T14:21:20;2.83;;;1.45;;
7887;SDS011;3989;48.810;9.208;2022-10-17T14:23:49;1.92;;;1.83;;
7887;SDS011;3989;48.810;9.208;2022-10-17T14:26:19;2.60;;;1.35;;
7887;SDS011;3989;48.810;9.208;2022-10-17T14:28:48;2.03;;;1.30;;
7887;SDS011;3989;48.810;9.208;2022-10-17T14:31:18;1.63;;;1.48;;
7887;SDS011;3989;48.810;9.208;2022-10-17T14:33:50;3.33;;;1.38;;
7887;SDS011;3989;48.810;9.208;2022-10-17T14:36:20;2.17;;;1.75;;
7887;SDS011;3989;48.810;9.208;2022-10-17T14:38:56;1.48;;;1.38;;
7887;SDS011;3989;48.810;9.208;2022-10-17T14:41:23;2.83;;;1.48;;
7887;SDS011;3989;48.810;9.208;2022-10-17T14:43:52;2.55;;;1.85;;
7887;SDS011;3989;48.810;9.208;2022-10-17T14:46:21;3.38;;;1.40;;
7887;SDS011;3989;48.810;9.208;2022-10-17T14:48:52;2.60;;;1.80;;
7887;SDS011;3989;48.810;9.208;2022-10-17T14:51:30;2.22;;;1.73;;
7887;SDS011;3989;48.810;9.208;2022-10-17T14:54:03;3.67;;;1.98;;
7887;SDS011;3989;48.810;9.208;2022-10-17T14:56:42;1.45;;;1.35;;
7887;SDS011;3989;48.810;9.208;2022-10-17T14:59:16;2.17;;;2.05;;
7887;SDS011;3989;48.810;9.208;2022-10-17T15:01:46;2.92;;;1.60;;
7887;SDS011;3989;48.810;9.208;2022-10-17T15:04:13;2.80;;;1.75;;
7887;SDS011;3989;48.810;9.208;2022-10-17T15:06:41;2.80;;;1.83;;
7887;SDS011;3989;48.810;9.208;2022-10-17T15:09:08;1.70;;;1.60;;
7887;SDS011;3989;48.810;9.208;2022-10-17T15:11:35;2.05;;;1.75;;
7887;SDS011;3989;48.810;9.208;2022-10-17T15:14:02;3.25;;;1.70;;
7887;SDS011;3989;48.810;9.208;2022-10-17T15:16:29;1.90;;;1.80;;
7887;SDS011;3989;48.810;9.208;2022-10-17T15:18:57;1.90;;;1.80;;
7887;SDS011;3989;48.810;9.208;2022-10-17T15:21:27;4.20;;;2.35;;
7887;SDS011;3989;48.810;9.208;2022-10-17T15:23:56;3.50;;;2.00;;
7887;SDS011;3989;48.810;9.208;2022-10-17T15:26:28;1.45;;;1.45;;
7887;SDS011;3989;48.810;9.208;2022-10-17T15:28:56;2.63;;;1.98;;
7887;SDS011;3989;48.810;9.208;2022-10-17T15:31:24;1.80;;;1.70;;
7887;SDS011;3989;48.810;9.208;2022-10-17T15:33:52;2.03;;;1.92;;
7887;SDS011;3989;48.810;9.208;2022-10-17T15:36:22;6.10;;;2.35;;
7887;SDS011;3989;48.810;9.208;2022-10-17T15:38:51;2.85;;;1.60;;
7887;SDS011;3989;48.810;9.208;2022-10-17T15:41:22;3.65;;;2.28;;
7887;SDS011;3989;48.810;9.208;2022-10-17T15:43:50;4.35;;;1.67;;
7887;SDS011;3989;48.810;9.208;2022-10-17T15:46:18;2.05;;;1.85;;
7887;SDS011;3989;48.810;9.208;2022-10-17T15:48:48;2.65;;;2.25;;
7887;SDS011;3989;48.810;9.208;2022-10-17T15:51:15;3.20;;;1.77;;